Time;durP1;ratioP1;P1;durP2;ratioP2;P2;SDS_P1;SDS_P2;PMS_P1;PMS_P2;Temp;Humidity;BMP_temperature;BMP_pressure;BME280_temperature;BME280_humidity;BME280_pressure;Samples;Min_cycle;Max_cycle;Signal;HPM_P1;HPM_P2
2023/10/21 00:01:49;;;;;;;1.63;1.53;;;14.10;99.90;;;;;;4892509;29;20334;-88
2023/10/21 00:04:15;;;;;;;1.93;1.43;;;13.60;99.90;;;;;;4896941;29;20754;-88
2023/10/21 00:06:40;;;;;;;1.60;1.50;;;13.90;99.90;;;;;;4896791;29;20181;-88
2023/10/21 00:09:06;;;;;;;1.70;1.60;;;14.10;99.90;;;;;;4899335;29;20265;-88
2023/10/21 00:11:32;;;;;;;1.77;1.50;;;13.70;99.90;;;;;;4895259;29;20243;-88
2023/10/21 00:13:57;;;;;;;1.67;1.40;;;13.80;99.90;;;;;;4889461;29;20557;-88
2023/10/21 00:16:23;;;;;;;1.80;1.30;;;13.60;99.90;;;;;;4891336;29;20976;-88
2023/10/21 00:18:49;;;;;;;2.30;1.10;;;14.20;99.90;;;;;;4895572;29;20190;-88
2023/10/21 00:21:14;;;;;;;0.70;0.60;;;13.80;99.90;;;;;;4896133;29;20485;-88
2023/10/21 00:23:40;;;;;;;1.47;0.80;;;13.90;99.90;;;;;;4895911;29;20727;-88
2023/10/21 00:26:07;;;;;;;1.60;0.93;;;14.10;99.90;;;;;;4891967;29;20190;-88
2023/10/21 00:28:32;;;;;;;1.27;0.90;;;14.70;99.90;;;;;;4894816;29;20252;-88
2023/10/21 00:31:04;;;;;;;0.83;0.83;;;14.10;99.90;;;;;;4893984;29;20675;-88
2023/10/21 00:33:29;;;;;;;1.20;1.10;;;14.30;99.90;;;;;;4896784;29;20282;-88
2023/10/21 00:35:55;;;;;;;0.93;0.80;;;14.60;99.90;;;;;;4892712;29;20182;-88
2023/10/21 00:38:20;;;;;;;1.17;1.07;;;14.90;99.90;;;;;;4894929;29;20190;-88
2023/10/21 00:40:53;;;;;;;0.70;0.60;;;15.20;99.90;;;;;;4898144;29;20213;-88
2023/10/21 00:43:34;;;;;;;1.00;0.80;;;14.70;99.90;;;;;;4895671;29;20214;-88
2023/10/21 00:46:09;;;;;;;0.70;0.70;;;14.70;99.90;;;;;;4918311;29;20217;-88
2023/10/21 00:48:35;;;;;;;0.80;0.70;;;15.00;99.90;;;;;;4889680;29;20190;-88
2023/10/21 00:51:01;;;;;;;1.13;0.80;;;14.70;99.90;;;;;;4893712;29;20219;-88
2023/10/21 00:53:28;;;;;;;0.60;0.60;;;14.60;99.90;;;;;;4896373;29;20514;-88
2023/10/21 00:55:53;;;;;;;0.70;0.60;;;14.60;99.90;;;;;;4895827;29;20274;-88
2023/10/21 00:58:21;;;;;;;0.80;0.67;;;14.60;99.90;;;;;;4893570;29;20286;-88
2023/10/21 01:00:46;;;;;;;0.90;0.73;;;15.00;99.90;;;;;;4899124;29;20185;-88
2023/10/21 01:03:12;;;;;;;0.70;0.60;;;15.00;99.90;;;;;;4897474;29;20206;-88
2023/10/21 01:05:37;;;;;;;1.00;0.70;;;15.00;99.90;;;;;;4892081;29;20730;-88
2023/10/21 01:08:03;;;;;;;1.73;0.80;;;15.00;99.90;;;;;;4893842;29;20278;-87
2023/10/21 01:10:29;;;;;;;0.90;0.60;;;15.00;99.90;;;;;;4898914;29;20221;-88
2023/10/21 01:12:54;;;;;;;1.00;0.83;;;14.60;99.90;;;;;;4894292;29;20497;-88
2023/10/21 01:15:20;;;;;;;1.10;0.90;;;15.10;99.90;;;;;;4895079;29;20214;-88
2023/10/21 01:17:50;;;;;;;1.70;0.70;;;14.90;99.90;;;;;;4899768;29;20297;-88
2023/10/21 01:20:17;;;;;;;0.80;0.70;;;15.40;99.90;;;;;;4898291;29;20182;-88
2023/10/21 01:22:43;;;;;;;0.90;0.70;;;15.00;99.90;;;;;;4891784;29;20221;-89
2023/10/21 01:25:09;;;;;;;1.00;0.80;;;14.80;99.90;;;;;;4890928;29;20200;-88
2023/10/21 01:27:34;;;;;;;0.90;0.70;;;15.10;99.90;;;;;;4897859;29;20281;-88
2023/10/21 01:30:00;;;;;;;1.20;0.83;;;15.20;99.90;;;;;;4897567;29;21472;-87
2023/10/21 01:32:25;;;;;;;0.70;0.50;;;15.00;99.90;;;;;;4889680;29;20229;-88
2023/10/21 01:34:51;;;;;;;0.80;0.60;;;15.10;99.90;;;;;;4892583;29;20190;-87
2023/10/21 01:37:17;;;;;;;0.90;0.60;;;14.90;99.90;;;;;;4890492;29;20195;-88
2023/10/21 01:39:43;;;;;;;0.70;0.60;;;14.90;99.90;;;;;;4894855;29;20454;-88
2023/10/21 01:42:09;;;;;;;1.00;0.50;;;14.90;99.90;;;;;;4891836;29;20201;-88
2023/10/21 01:44:35;;;;;;;0.70;0.60;;;14.80;99.90;;;;;;4886156;29;20197;-88
2023/10/21 01:47:00;;;;;;;0.70;0.60;;;15.50;99.90;;;;;;4892086;29;20205;-88
2023/10/21 01:49:26;;;;;;;0.70;0.70;;;15.20;99.90;;;;;;4895725;29;20619;-88
2023/10/21 01:51:52;;;;;;;2.93;0.70;;;15.10;99.90;;;;;;4889713;29;20222;-88
2023/10/21 01:54:17;;;;;;;1.00;0.70;;;14.70;99.90;;;;;;4889768;29;20687;-88
2023/10/21 01:56:42;;;;;;;0.70;0.70;;;15.50;99.90;;;;;;4895975;29;20540;-88
2023/10/21 01:59:08;;;;;;;0.70;0.63;;;14.70;99.90;;;;;;4887666;29;20237;-88
2023/10/21 02:01:34;;;;;;;0.80;0.60;;;15.30;99.90;;;;;;4898000;29;20234;-88
2023/10/21 02:04:00;;;;;;;0.70;0.50;;;14.90;99.90;;;;;;4893972;29;20209;-88
2023/10/21 02:06:26;;;;;;;0.67;0.57;;;14.70;99.90;;;;;;4892649;29;20194;-88
2023/10/21 02:08:53;;;;;;;0.73;0.60;;;14.70;99.90;;;;;;4894988;29;20527;-88
2023/10/21 02:11:22;;;;;;;0.75;0.55;;;15.20;99.90;;;;;;4896053;29;20186;-88
2023/10/21 02:13:48;;;;;;;0.70;0.50;;;15.30;99.90;;;;;;4892356;29;20261;-88
2023/10/21 02:16:14;;;;;;;0.60;0.50;;;15.10;99.90;;;;;;4892041;29;20191;-88
2023/10/21 02:18:39;;;;;;;0.70;0.60;;;15.60;99.90;;;;;;4923615;29;20198;-88
2023/10/21 02:21:06;;;;;;;0.60;0.47;;;15.10;99.90;;;;;;4898671;29;20197;-89
2023/10/21 02:23:31;;;;;;;2.67;0.68;;;15.40;99.90;;;;;;4894650;29;20239;-88
2023/10/21 02:26:02;;;;;;;0.80;0.60;;;14.90;99.90;;;;;;4896024;29;20577;-88
2023/10/21 02:28:27;;;;;;;0.60;0.50;;;14.60;99.90;;;;;;4897954;29;20194;-88
2023/10/21 02:30:53;;;;;;;0.80;0.50;;;15.50;99.90;;;;;;4894353;29;20235;-87
2023/10/21 02:33:18;;;;;;;0.60;0.60;;;14.90;99.90;;;;;;4914727;29;20228;-87
2023/10/21 02:35:45;;;;;;;0.70;0.50;;;15.00;99.90;;;;;;4896001;29;20205;-88
2023/10/21 02:38:10;;;;;;;0.70;0.50;;;14.80;99.90;;;;;;4894352;29;20546;-88
2023/10/21 02:40:40;;;;;;;0.63;0.47;;;15.00;99.90;;;;;;4892966;29;20183;-87
2023/10/21 02:43:06;;;;;;;0.60;0.40;;;15.00;99.90;;;;;;4895289;29;20211;-88
2023/10/21 02:45:31;;;;;;;0.70;0.70;;;15.20;99.90;;;;;;4891166;29;20530;-88
2023/10/21 02:47:57;;;;;;;1.20;0.50;;;14.80;99.90;;;;;;4890698;29;20199;-88
2023/10/21 02:50:22;;;;;;;0.60;0.60;;;14.70;99.90;;;;;;4893817;29;20289;-88
2023/10/21 02:52:51;;;;;;;1.90;0.60;;;14.80;99.90;;;;;;4891776;29;20557;-88
2023/10/21 02:55:16;;;;;;;1.13;0.50;;;15.40;99.90;;;;;;4911527;29;20269;-88
2023/10/21 02:57:42;;;;;;;0.80;0.47;;;15.20;99.90;;;;;;4889401;29;20269;-87
2023/10/21 03:00:10;;;;;;;1.67;0.70;;;15.00;99.90;;;;;;4898093;29;20605;-88
2023/10/21 03:02:37;;;;;;;0.70;0.50;;;15.10;99.90;;;;;;4891526;29;20215;-88
2023/10/21 03:05:05;;;;;;;1.55;0.50;;;14.80;99.90;;;;;;4923441;29;20210;-88
2023/10/21 03:07:30;;;;;;;1.65;0.50;;;14.70;99.90;;;;;;4909574;29;20384;-87
2023/10/21 03:09:56;;;;;;;0.80;0.57;;;14.80;99.90;;;;;;4935346;29;20283;-88
2023/10/21 03:12:21;;;;;;;1.00;0.60;;;15.20;99.90;;;;;;4894859;29;20935;-88
2023/10/21 03:14:47;;;;;;;1.40;0.60;;;15.30;99.90;;;;;;4882762;29;20225;-88
2023/10/21 03:17:14;;;;;;;0.60;0.40;;;14.60;99.90;;;;;;4897192;29;20597;-88
2023/10/21 03:19:39;;;;;;;1.02;0.60;;;14.50;99.90;;;;;;4896493;29;20206;-88
2023/10/21 03:22:05;;;;;;;0.60;0.50;;;14.80;99.90;;;;;;4888541;29;20226;-89
2023/10/21 03:24:30;;;;;;;0.70;0.50;;;15.00;99.90;;;;;;4898644;29;20680;-84
2023/10/21 03:26:56;;;;;;;0.63;0.50;;;14.70;99.90;;;;;;4905302;29;20280;-84
2023/10/21 03:29:21;;;;;;;0.60;0.60;;;14.90;99.90;;;;;;4908045;29;20242;-84
2023/10/21 03:31:47;;;;;;;0.90;0.50;;;15.30;99.90;;;;;;4903163;29;20759;-84
2023/10/21 03:34:12;;;;;;;2.80;0.60;;;14.70;99.90;;;;;;4902238;29;20853;-84
2023/10/21 03:36:38;;;;;;;2.40;0.60;;;14.90;99.90;;;;;;4902965;29;20676;-84
2023/10/21 03:39:03;;;;;;;1.80;0.50;;;14.70;99.90;;;;;;4895934;29;20569;-84
2023/10/21 03:41:29;;;;;;;2.50;0.63;;;14.30;99.90;;;;;;4905688;29;20204;-84
2023/10/21 03:43:54;;;;;;;0.70;0.50;;;15.00;99.90;;;;;;4897577;29;20202;-84
2023/10/21 03:46:20;;;;;;;0.60;0.50;;;15.20;99.90;;;;;;4899508;29;20202;-84
2023/10/21 03:48:46;;;;;;;0.60;0.57;;;14.50;99.90;;;;;;4899972;29;20197;-84
2023/10/21 03:51:12;;;;;;;1.10;0.50;;;15.20;99.90;;;;;;4899041;29;20701;-84
2023/10/21 03:53:40;;;;;;;0.70;0.60;;;14.90;99.90;;;;;;4898465;29;20851;-83
2023/10/21 03:56:06;;;;;;;0.70;0.60;;;14.70;99.90;;;;;;4918146;29;20240;-84
2023/10/21 03:58:32;;;;;;;0.90;0.70;;;15.00;99.90;;;;;;4900414;29;20211;-83
2023/10/21 04:00:58;;;;;;;0.80;0.60;;;14.40;99.90;;;;;;4901401;29;20197;-84
2023/10/21 04:03:25;;;;;;;1.03;0.90;;;15.00;99.90;;;;;;4899055;29;20681;-84
2023/10/21 04:05:51;;;;;;;1.55;0.80;;;14.30;99.90;;;;;;4895497;29;20209;-86
2023/10/21 04:08:17;;;;;;;1.10;0.98;;;14.70;99.90;;;;;;4895432;29;20569;-87
2023/10/21 04:10:44;;;;;;;1.67;0.97;;;14.50;99.90;;;;;;4898056;29;20189;-87
2023/10/21 04:13:09;;;;;;;0.93;0.73;;;14.00;99.90;;;;;;4912107;29;20234;-84
2023/10/21 04:15:35;;;;;;;0.97;0.87;;;13.90;99.90;;;;;;4900190;29;20225;-84
2023/10/21 04:18:00;;;;;;;3.60;1.10;;;14.10;99.90;;;;;;4897644;29;20286;-84
2023/10/21 04:20:26;;;;;;;0.80;0.73;;;13.90;99.90;;;;;;4899158;29;20197;-85
2023/10/21 04:22:52;;;;;;;1.10;0.80;;;13.70;99.90;;;;;;4914019;29;20684;-84
2023/10/21 04:25:17;;;;;;;2.60;1.07;;;14.50;99.90;;;;;;4898927;29;20198;-88
2023/10/21 04:27:44;;;;;;;1.20;1.10;;;14.10;99.90;;;;;;4894279;29;20198;-84
2023/10/21 04:30:10;;;;;;;1.05;0.52;;;13.80;99.90;;;;;;4898526;29;20758;-84
2023/10/21 04:32:36;;;;;;;0.90;0.60;;;14.20;99.90;;;;;;4894271;29;20230;-86
2023/10/21 04:35:04;;;;;;;2.33;0.70;;;14.20;99.90;;;;;;4899600;29;20275;-85
2023/10/21 04:37:31;;;;;;;0.90;0.50;;;14.30;99.90;;;;;;4897379;29;20311;-84
2023/10/21 04:39:56;;;;;;;0.93;0.85;;;14.30;99.90;;;;;;4895561;29;20611;-86
2023/10/21 04:42:23;;;;;;;0.90;0.63;;;14.60;99.90;;;;;;4898449;29;20690;-87
2023/10/21 04:44:48;;;;;;;1.20;0.70;;;14.20;99.90;;;;;;4897497;29;20285;-87
2023/10/21 04:47:15;;;;;;;1.30;0.60;;;14.10;99.90;;;;;;4894544;29;20212;-87
2023/10/21 04:49:44;;;;;;;0.70;0.60;;;14.40;99.90;;;;;;4895026;29;20229;-87
2023/10/21 04:52:17;;;;;;;1.45;0.60;;;14.50;99.90;;;;;;4893603;29;20230;-88
2023/10/21 04:54:43;;;;;;;1.40;0.70;;;14.70;99.90;;;;;;4892719;29;20752;-88
2023/10/21 04:57:09;;;;;;;0.60;0.50;;;14.30;99.90;;;;;;4895522;29;20555;-87
2023/10/21 04:59:35;;;;;;;1.02;0.93;;;14.60;99.90;;;;;;4892407;29;20191;-87
2023/10/21 05:02:01;;;;;;;0.80;0.60;;;14.90;99.90;;;;;;4895398;29;20571;-87
2023/10/21 05:04:27;;;;;;;6.33;2.10;;;14.80;99.90;;;;;;4894610;29;20708;-91
2023/10/21 05:06:54;;;;;;;0.80;0.70;;;14.60;99.90;;;;;;4896828;29;20445;-86
2023/10/21 05:09:19;;;;;;;0.60;0.50;;;15.30;99.90;;;;;;4898900;29;20229;-88
2023/10/21 05:11:45;;;;;;;0.73;0.50;;;15.20;99.90;;;;;;4891355;29;20210;-87
2023/10/21 05:14:10;;;;;;;0.97;0.60;;;15.50;99.90;;;;;;5181367;23;21189;-87
2023/10/21 05:16:41;;;;;;;1.33;0.60;;;16.80;99.90;;;;;;4951668;28;20189;-89
2023/10/21 05:25:05;;;;;;;0.80;0.52;;;15.60;99.90;;;;;;4960850;28;20207;-86
2023/10/21 05:27:33;;;;;;;0.70;0.52;;;15.40;99.90;;;;;;4951860;28;20189;-86
2023/10/21 05:29:59;;;;;;;1.00;0.50;;;15.40;99.90;;;;;;4949811;28;20193;-85
2023/10/21 05:32:27;;;;;;;2.40;2.20;;;15.40;99.90;;;;;;4949519;28;20216;-86
2023/10/21 05:34:53;;;;;;;0.60;0.60;;;15.60;99.90;;;;;;4951090;28;20248;-86
2023/10/21 05:37:18;;;;;;;0.67;0.57;;;15.40;99.90;;;;;;4946751;28;20650;-86
2023/10/21 05:39:44;;;;;;;0.90;0.50;;;15.60;99.90;;;;;;4952802;28;20196;-85
2023/10/21 05:42:10;;;;;;;1.73;0.63;;;15.60;99.90;;;;;;4951353;28;20200;-86
2023/10/21 05:44:36;;;;;;;0.97;0.80;;;15.80;99.90;;;;;;4947429;28;20189;-86
2023/10/21 05:47:01;;;;;;;0.80;0.60;;;15.40;99.90;;;;;;4953219;28;20490;-86
2023/10/21 05:49:27;;;;;;;0.80;0.70;;;15.90;99.90;;;;;;4954457;28;20946;-85
2023/10/21 05:51:52;;;;;;;1.27;0.60;;;15.40;99.90;;;;;;4952236;28;20683;-86
2023/10/21 05:54:18;;;;;;;1.27;0.53;;;15.30;99.90;;;;;;4952417;28;20215;-85
2023/10/21 05:56:44;;;;;;;1.60;0.80;;;15.80;99.90;;;;;;4955224;28;20295;-86
2023/10/21 05:59:09;;;;;;;0.93;0.77;;;15.40;99.90;;;;;;4950955;28;20481;-85
2023/10/21 06:01:35;;;;;;;2.50;0.60;;;15.60;99.90;;;;;;4955255;28;20191;-85
2023/10/21 06:04:01;;;;;;;0.82;0.57;;;15.90;99.90;;;;;;4951773;28;20634;-86
2023/10/21 06:06:26;;;;;;;0.70;0.60;;;15.50;99.90;;;;;;4952682;28;20200;-85
2023/10/21 06:08:52;;;;;;;1.07;0.90;;;15.10;99.90;;;;;;4954177;28;20192;-86
2023/10/21 06:11:18;;;;;;;1.13;0.63;;;15.50;99.90;;;;;;4966666;28;20204;-85
2023/10/21 06:13:43;;;;;;;1.10;0.70;;;15.70;99.90;;;;;;4949067;28;20652;-86
2023/10/21 06:16:09;;;;;;;1.37;0.70;;;15.30;99.90;;;;;;4949932;28;20203;-85
2023/10/21 06:18:34;;;;;;;1.17;0.70;;;15.40;99.90;;;;;;4951741;28;20200;-85
2023/10/21 06:21:00;;;;;;;0.83;0.77;;;15.20;99.90;;;;;;4950410;28;20188;-85
2023/10/21 06:23:25;;;;;;;0.90;0.70;;;15.40;99.90;;;;;;4951652;28;20495;-86
2023/10/21 06:25:51;;;;;;;2.10;1.00;;;15.50;99.90;;;;;;4954445;28;20188;-86
2023/10/21 06:28:16;;;;;;;0.80;0.60;;;15.60;99.90;;;;;;4951846;28;20191;-85
2023/10/21 06:30:45;;;;;;;0.70;0.53;;;15.30;99.90;;;;;;4952041;28;20209;-91
2023/10/21 06:33:11;;;;;;;0.85;0.60;;;15.30;99.90;;;;;;4943444;28;20215;-91
2023/10/21 06:35:37;;;;;;;0.80;0.80;;;15.00;99.90;;;;;;4951179;28;20574;-90
2023/10/21 06:38:04;;;;;;;0.88;0.60;;;14.80;99.90;;;;;;4954069;28;20212;-91
2023/10/21 06:40:30;;;;;;;0.70;0.70;;;15.30;99.90;;;;;;4959077;28;20189;-88
2023/10/21 06:42:56;;;;;;;0.90;0.60;;;15.60;99.90;;;;;;4951360;28;20211;-87
2023/10/21 06:45:22;;;;;;;0.60;0.50;;;15.10;99.90;;;;;;4948923;28;20200;-88
2023/10/21 06:47:47;;;;;;;1.27;0.73;;;15.20;99.90;;;;;;4955657;28;20223;-88
2023/10/21 06:50:13;;;;;;;1.57;0.70;;;15.40;99.90;;;;;;4953254;28;20629;-90
2023/10/21 06:52:38;;;;;;;0.70;0.60;;;15.50;99.90;;;;;;4952568;28;20216;-89
2023/10/21 06:55:05;;;;;;;0.87;0.67;;;15.20;99.90;;;;;;4963770;28;20189;-89
2023/10/21 06:57:31;;;;;;;1.00;0.70;;;15.00;99.90;;;;;;4949368;28;20184;-88
2023/10/21 06:59:57;;;;;;;1.30;0.60;;;15.30;99.90;;;;;;4932487;28;20212;-89
2023/10/21 07:02:23;;;;;;;0.82;0.63;;;15.60;99.90;;;;;;4950533;28;20208;-88
2023/10/21 07:04:50;;;;;;;0.70;0.60;;;15.40;99.90;;;;;;4953139;28;20709;-89
2023/10/21 07:07:15;;;;;;;1.00;0.70;;;15.20;99.90;;;;;;4954603;28;20563;-88
2023/10/21 07:09:41;;;;;;;0.70;0.57;;;15.50;99.90;;;;;;4953830;28;20180;-88
2023/10/21 07:12:06;;;;;;;0.90;0.80;;;15.50;99.90;;;;;;4955472;28;20786;-87
2023/10/21 07:14:33;;;;;;;0.97;0.80;;;15.40;99.90;;;;;;4953769;28;20188;-89
2023/10/21 07:17:00;;;;;;;0.70;0.70;;;15.70;99.90;;;;;;4950841;28;20238;-88
2023/10/21 07:19:27;;;;;;;0.80;0.70;;;15.30;99.90;;;;;;4961968;28;20224;-89
2023/10/21 07:21:58;;;;;;;1.80;0.80;;;15.70;99.90;;;;;;4955954;28;20264;-89
2023/10/21 07:24:25;;;;;;;1.45;0.75;;;15.80;99.90;;;;;;4956279;28;20236;-88
2023/10/21 07:26:50;;;;;;;3.00;1.05;;;15.10;99.90;;;;;;4968937;28;20205;-88
2023/10/21 07:29:17;;;;;;;1.00;0.83;;;15.20;99.90;;;;;;4955310;28;20708;-88
2023/10/21 07:31:43;;;;;;;0.75;0.50;;;15.10;99.90;;;;;;4955668;28;20674;-89
2023/10/21 07:34:11;;;;;;;1.17;0.60;;;15.60;99.90;;;;;;4953263;28;20315;-89
2023/10/21 07:36:40;;;;;;;0.90;0.70;;;15.70;99.90;;;;;;4954421;28;20484;-89
2023/10/21 07:39:06;;;;;;;1.15;0.70;;;16.00;99.90;;;;;;4956464;28;20199;-91
2023/10/21 07:41:33;;;;;;;0.87;0.60;;;15.90;99.90;;;;;;4954987;28;20192;-88
2023/10/21 07:43:59;;;;;;;1.92;0.70;;;15.50;99.90;;;;;;4956540;28;20236;-87
2023/10/21 07:46:25;;;;;;;0.65;0.60;;;16.40;99.90;;;;;;4954993;28;20193;-86
2023/10/21 07:48:51;;;;;;;1.20;0.83;;;16.10;99.90;;;;;;4954058;28;20193;-87
2023/10/21 07:51:18;;;;;;;1.80;0.60;;;15.80;99.90;;;;;;4954412;28;20196;-87
2023/10/21 07:53:44;;;;;;;0.90;0.60;;;16.30;99.90;;;;;;4952287;28;20468;-88
2023/10/21 07:56:09;;;;;;;0.70;0.60;;;17.30;99.90;;;;;;4954627;28;20190;-88
2023/10/21 07:58:35;;;;;;;0.70;0.53;;;17.10;99.90;;;;;;4959076;28;20212;-87
2023/10/21 08:01:02;;;;;;;1.38;0.55;;;16.70;99.90;;;;;;4963698;28;20188;-87
2023/10/21 08:03:27;;;;;;;2.17;0.70;;;16.50;99.90;;;;;;4966788;28;20222;-87
2023/10/21 08:05:53;;;;;;;1.13;0.87;;;17.20;99.90;;;;;;4962531;28;20248;-87
2023/10/21 08:08:19;;;;;;;1.73;0.80;;;17.30;99.90;;;;;;4961017;28;20467;-87
2023/10/21 08:10:44;;;;;;;1.80;0.70;;;17.10;99.90;;;;;;4968403;28;20189;-87
2023/10/21 08:13:10;;;;;;;1.83;1.17;;;17.40;99.90;;;;;;4955021;28;21142;-85
2023/10/21 08:15:36;;;;;;;1.87;0.73;;;16.60;99.90;;;;;;4958921;28;20209;-85
2023/10/21 08:18:02;;;;;;;2.30;0.67;;;17.60;99.90;;;;;;4964340;28;20240;-86
2023/10/21 08:20:28;;;;;;;1.27;0.75;;;17.10;99.90;;;;;;4965562;28;20197;-86
2023/10/21 08:22:53;;;;;;;1.77;0.90;;;17.10;99.90;;;;;;4963149;28;20228;-87
2023/10/21 08:25:20;;;;;;;0.80;0.60;;;16.90;99.70;;;;;;4966034;28;20227;-87
2023/10/21 08:27:45;;;;;;;0.90;0.60;;;17.00;99.80;;;;;;4963020;28;20260;-85
2023/10/21 08:30:12;;;;;;;1.17;0.60;;;17.90;99.90;;;;;;4966377;28;20223;-86
2023/10/21 08:32:38;;;;;;;1.58;0.63;;;17.40;99.40;;;;;;4964770;28;20263;-87
2023/10/21 08:35:04;;;;;;;4.97;1.00;;;17.30;99.40;;;;;;4954197;28;20637;-87
2023/10/21 08:37:29;;;;;;;1.70;0.70;;;17.30;99.20;;;;;;4953453;28;20193;-87
2023/10/21 08:39:56;;;;;;;2.27;0.70;;;17.60;99.30;;;;;;4952219;28;20202;-87
2023/10/21 08:42:25;;;;;;;1.00;0.60;;;16.90;98.20;;;;;;4952757;28;20205;-87
2023/10/21 08:44:52;;;;;;;1.45;1.33;;;17.40;98.80;;;;;;4964446;28;20185;-87
2023/10/21 08:47:19;;;;;;;1.05;0.60;;;17.20;98.60;;;;;;4967753;28;20196;-86
2023/10/21 08:49:46;;;;;;;2.35;0.55;;;17.40;98.30;;;;;;4954722;28;20184;-87
2023/10/21 08:52:14;;;;;;;1.52;0.60;;;17.40;97.80;;;;;;4953184;28;20323;-86
2023/10/21 08:54:45;;;;;;;3.35;0.77;;;18.00;98.10;;;;;;4952446;28;20181;-87
2023/10/21 08:57:11;;;;;;;0.80;0.60;;;17.60;98.00;;;;;;4952368;28;20181;-86
2023/10/21 08:59:38;;;;;;;1.20;0.73;;;17.60;97.30;;;;;;4951777;28;20236;-86
2023/10/21 09:02:05;;;;;;;1.10;0.60;;;17.80;96.90;;;;;;4953597;28;20188;-88
2023/10/21 09:04:32;;;;;;;0.70;0.60;;;17.90;97.10;;;;;;4953385;28;20196;-86
2023/10/21 09:07:00;;;;;;;0.93;0.75;;;18.40;96.80;;;;;;4951019;28;20195;-86
2023/10/21 09:09:28;;;;;;;1.42;0.85;;;18.50;96.40;;;;;;4951145;28;20244;-86
2023/10/21 09:12:07;;;;;;;1.95;0.90;;;19.00;96.30;;;;;;4953325;28;20268;-87
2023/10/21 09:14:51;;;;;;;2.55;0.70;;;18.50;95.70;;;;;;4951965;28;20208;-86
2023/10/21 09:17:17;;;;;;;2.67;0.70;;;18.70;95.50;;;;;;4952932;28;20259;-87
2023/10/21 09:19:42;;;;;;;2.50;0.90;;;18.80;95.70;;;;;;4953667;28;20650;-86
2023/10/21 09:22:25;;;;;;;3.33;0.90;;;19.50;95.50;;;;;;4950708;28;20189;-86
2023/10/21 09:25:10;;;;;;;0.75;0.50;;;18.90;95.60;;;;;;4984390;23;20600;-89
2023/10/21 09:27:37;;;;;;;1.05;0.60;;;18.90;94.40;;;;;;4980598;28;20184;-89
2023/10/21 09:30:04;;;;;;;1.10;0.70;;;19.30;94.20;;;;;;4978157;28;20234;-89
2023/10/21 09:32:30;;;;;;;0.90;0.60;;;19.20;93.60;;;;;;4978831;28;20239;-89
2023/10/21 09:35:14;;;;;;;4.10;0.90;;;19.20;94.00;;;;;;4971393;28;20188;-89
2023/10/21 09:37:40;;;;;;;1.15;1.05;;;19.30;93.60;;;;;;4988335;28;20203;-88
2023/10/21 09:40:06;;;;;;;1.23;0.53;;;19.70;93.70;;;;;;4985023;28;20192;-89
2023/10/21 09:42:44;;;;;;;1.63;0.80;;;19.50;93.30;;;;;;4970927;28;20459;-89
2023/10/21 09:45:11;;;;;;;0.90;0.80;;;19.40;93.50;;;;;;4968964;28;20188;-89
2023/10/21 09:47:39;;;;;;;1.52;0.80;;;19.50;93.80;;;;;;4971500;28;20193;-89
2023/10/21 09:50:11;;;;;;;2.17;0.80;;;19.50;93.00;;;;;;4954209;28;20283;-89
2023/10/21 09:53:00;;;;;;;5.53;1.33;;;19.50;93.30;;;;;;4966338;28;20215;-89
2023/10/21 09:55:31;;;;;;;0.90;0.60;;;19.20;93.80;;;;;;4968267;28;20223;-89
2023/10/21 09:57:57;;;;;;;2.95;1.77;;;19.60;93.10;;;;;;4969438;28;20550;-89
2023/10/21 10:00:27;;;;;;;2.83;1.00;;;19.10;93.10;;;;;;4955834;28;20212;-89
2023/10/21 10:02:55;;;;;;;1.00;0.60;;;19.40;93.60;;;;;;4952567;28;20604;-89
2023/10/21 10:05:22;;;;;;;0.70;0.52;;;19.80;93.20;;;;;;4968629;28;20195;-89
2023/10/21 10:07:49;;;;;;;1.00;0.55;;;20.00;92.60;;;;;;4974087;28;20256;-88
2023/10/21 10:10:17;;;;;;;1.65;0.70;;;20.10;91.80;;;;;;4993174;28;20192;-88
2023/10/21 10:12:53;;;;;;;2.03;0.90;;;20.10;92.30;;;;;;4970085;28;20634;-88
2023/10/21 10:15:40;;;;;;;2.45;1.40;;;19.80;91.50;;;;;;4966766;28;20180;-88
2023/10/21 10:18:19;;;;;;;1.45;0.70;;;20.00;91.10;;;;;;4973657;28;20228;-88
2023/10/21 10:20:48;;;;;;;0.95;0.75;;;20.00;90.50;;;;;;4954487;28;20210;-88
2023/10/21 10:23:14;;;;;;;0.95;0.70;;;20.30;90.90;;;;;;4967882;28;20255;-88
2023/10/21 10:25:44;;;;;;;0.93;0.80;;;20.40;89.80;;;;;;4983015;28;20645;-88
2023/10/21 10:28:26;;;;;;;2.75;0.98;;;20.30;88.00;;;;;;4966914;28;20283;-88
2023/10/21 10:30:56;;;;;;;1.45;0.80;;;19.90;89.20;;;;;;4987284;28;20180;-88
2023/10/21 10:33:28;;;;;;;0.85;0.73;;;20.90;90.20;;;;;;4983229;28;20231;-88
2023/10/21 10:35:56;;;;;;;3.10;2.80;;;20.20;88.20;;;;;;4968554;28;20184;-88
2023/10/21 10:38:27;;;;;;;1.13;0.75;;;20.70;88.40;;;;;;4970627;28;20180;-88
2023/10/21 10:41:06;;;;;;;1.35;0.70;;;21.00;87.10;;;;;;4969794;28;20207;-88
2023/10/21 10:43:32;;;;;;;0.90;0.70;;;20.60;86.10;;;;;;4968234;28;20203;-88
2023/10/21 10:46:00;;;;;;;0.95;0.85;;;21.10;86.30;;;;;;4954438;28;20259;-88
2023/10/21 10:48:26;;;;;;;1.05;0.70;;;20.60;85.90;;;;;;4969375;28;20191;-88
2023/10/21 10:50:58;;;;;;;1.27;0.80;;;20.40;85.80;;;;;;4966813;28;20188;-88
2023/10/21 10:53:23;;;;;;;0.95;0.60;;;21.10;86.40;;;;;;4969293;28;20212;-88
2023/10/21 10:55:53;;;;;;;1.20;0.80;;;21.00;87.00;;;;;;4971587;28;20203;-88
2023/10/21 10:58:20;;;;;;;1.27;0.73;;;20.80;86.20;;;;;;4968658;28;20227;-88
2023/10/21 11:00:47;;;;;;;3.10;0.70;;;21.00;86.50;;;;;;4970982;28;20192;-88
2023/10/21 11:03:36;;;;;;;1.00;0.80;;;20.50;86.60;;;;;;4969982;28;20220;-88
2023/10/21 11:06:03;;;;;;;1.13;0.60;;;20.80;86.20;;;;;;4967604;28;20663;-88
2023/10/21 11:08:29;;;;;;;1.10;0.70;;;20.70;87.20;;;;;;4965946;28;20192;-88
2023/10/21 11:11:06;;;;;;;1.35;0.70;;;20.30;87.00;;;;;;4969687;28;20208;-88
2023/10/21 11:13:32;;;;;;;1.35;0.70;;;20.00;85.50;;;;;;4952392;28;20220;-88
2023/10/21 11:15:58;;;;;;;1.35;0.73;;;20.30;87.00;;;;;;4963821;28;20393;-88
2023/10/21 11:18:27;;;;;;;2.30;0.80;;;20.00;86.70;;;;;;4981995;28;20261;-88
2023/10/21 11:20:53;;;;;;;0.70;0.60;;;20.20;83.90;;;;;;4989021;28;20447;-88
2023/10/21 11:23:20;;;;;;;1.17;0.70;;;21.00;84.20;;;;;;4979929;28;20243;-88
2023/10/21 11:25:57;;;;;;;1.55;0.45;;;21.10;85.00;;;;;;4984380;28;20448;-87
2023/10/21 11:28:25;;;;;;;1.48;0.70;;;19.80;81.50;;;;;;4985277;28;20195;-88
2023/10/21 11:30:51;;;;;;;3.35;0.75;;;20.50;82.10;;;;;;4983426;28;20188;-88
2023/10/21 11:33:17;;;;;;;0.98;0.85;;;21.10;83.20;;;;;;4967496;28;20223;-88
2023/10/21 11:35:45;;;;;;;1.73;0.70;;;20.40;83.80;;;;;;4971741;28;20697;-88
2023/10/21 11:38:19;;;;;;;1.42;0.70;;;20.50;83.80;;;;;;4977645;28;20192;-87
2023/10/21 11:40:45;;;;;;;1.67;0.70;;;19.60;83.60;;;;;;4984595;28;20593;-87
2023/10/21 11:43:13;;;;;;;1.52;0.70;;;20.00;84.20;;;;;;4968826;28;20216;-88
2023/10/21 11:45:39;;;;;;;0.90;0.75;;;19.40;83.70;;;;;;4971355;28;20195;-88
2023/10/21 11:48:09;;;;;;;1.83;1.10;;;20.00;84.60;;;;;;4954645;28;20221;-88
2023/10/21 11:50:44;;;;;;;1.30;0.90;;;19.80;84.60;;;;;;4973519;28;20192;-88
2023/10/21 11:53:12;;;;;;;1.17;0.40;;;20.40;85.20;;;;;;4972439;28;20587;-88
2023/10/21 12:10:37;;;;;;;1.30;0.70;;;20.00;82.60;;;;;;4979066;28;20192;-88
2023/10/21 12:37:04;;;;;;;1.63;0.73;;;19.90;82.30;;;;;;4976830;28;20239;-91
2023/10/21 12:42:27;;;;;;;1.20;0.75;;;20.00;82.80;;;;;;4973326;28;20373;-91
2023/10/21 12:45:01;;;;;;;1.70;1.05;;;20.40;84.50;;;;;;4974049;28;20216;-91
2023/10/21 12:47:28;;;;;;;0.90;0.60;;;19.40;84.40;;;;;;4973305;28;20223;-91
2023/10/21 12:49:56;;;;;;;0.70;0.50;;;19.20;83.30;;;;;;4973982;28;20672;-90
2023/10/21 12:52:22;;;;;;;2.58;1.05;;;19.50;83.50;;;;;;4968693;28;20304;-90
2023/10/21 12:54:48;;;;;;;0.98;0.60;;;19.50;83.20;;;;;;4974449;28;20685;-91
2023/10/21 12:57:14;;;;;;;1.07;0.93;;;19.80;84.40;;;;;;4975771;28;20255;-90
2023/10/21 12:59:41;;;;;;;1.83;1.20;;;19.90;84.70;;;;;;4989746;28;20452;-90
2023/10/21 13:02:09;;;;;;;0.75;0.70;;;19.10;85.30;;;;;;4992474;28;20176;-91
2023/10/21 13:04:36;;;;;;;0.70;0.50;;;19.70;86.20;;;;;;4991008;28;20181;-90
2023/10/21 13:07:04;;;;;;;1.70;0.70;;;19.80;84.50;;;;;;4982501;28;20180;-90
2023/10/21 13:09:33;;;;;;;1.00;0.70;;;19.30;83.60;;;;;;4978142;28;20216;-90
2023/10/21 13:11:59;;;;;;;1.15;0.90;;;19.10;82.50;;;;;;4988628;28;20180;-91
2023/10/21 13:14:27;;;;;;;1.00;0.87;;;19.20;82.30;;;;;;4978827;28;20765;-91
2023/10/21 13:16:52;;;;;;;1.33;0.90;;;19.40;84.70;;;;;;4966786;28;20583;-91
2023/10/21 13:19:18;;;;;;;2.10;0.80;;;19.60;84.20;;;;;;4972867;28;20592;-91
2023/10/21 13:21:44;;;;;;;1.00;0.63;;;19.50;84.20;;;;;;4970697;28;20448;-91
2023/10/21 13:24:11;;;;;;;1.20;0.80;;;19.70;83.70;;;;;;4970741;28;20887;-91
2023/10/21 13:26:37;;;;;;;1.00;0.80;;;19.60;83.50;;;;;;4967809;28;20197;-91
2023/10/21 13:29:04;;;;;;;1.63;1.10;;;19.40;83.10;;;;;;4970262;28;20192;-91
2023/10/21 13:31:30;;;;;;;1.50;0.70;;;19.70;83.60;;;;;;4967364;28;20233;-91
2023/10/21 13:33:56;;;;;;;1.20;1.00;;;20.20;83.50;;;;;;4975398;28;20212;-91
2023/10/21 13:36:23;;;;;;;0.70;0.60;;;19.30;81.40;;;;;;4970957;28;20559;-91